Airfield :
LOGIN :

Register | Disclaimer

   EN    FR    IT 

 










Legend :    VFR   Marginal VFR   IFR   Intensive IFR   Very Intensive IFR
Visi :
Ceiling :
>= 8 km
>= 3000ft
5 to 8 km
1000 to 3000 ft
1500m to 5 km
500 to 1000 ft
800 to 1500m
200 to 500 ft
< 800m
< 200 ft
Symbols :   Thunderstorms  Fog  Heavy snow  Heavy precipitations  Wind > 20 kt
SIGMETs :     Misc.  Thunderstorms  Icing  Turbulence  Mountain Waves  Volcanic Ashes






- Airport Elevation : 1325 ft
- IATA code : EBU


LFMH - St-Etienne Boutheon

CURRENT METAR :
  • 031930Z AUTO VRB03KT 9999 -RA ///TCU 14/11 Q1016 TEMPO 35013KT BECMG BKN055

EXPIRED METARs :
  • 031900Z AUTO 35009KT 310V030 9999 RA FEW032/// BKN052/// BKN068/// ///CB 14/11 Q1015 TEMPO 35020G40KT 2000 TSRA BECMG BKN055
  • 031830Z AUTO 35005KT 310V010 9999 FEW054/// SCT084/// BKN100/// ///CB 19/09 Q1015 TEMPO 35020G40KT 2000 TSRA BECMG BKN055
  • 031800Z AUTO 34006KT 310V010 CAVOK 19/08 Q1014 NOSIG
  • 031730Z AUTO 34008KT 310V030 CAVOK 20/08 Q1014 NOSIG
  • 031700Z AUTO 36009KT 310V020 CAVOK 19/08 Q1014 TEMPO 36020G30KT SHRA BKN050TCU

TAF AMD TAF LFMH
Valid from the 03 at 17:00 until the 04 at 15:00 UTC


031759Z 0317/0415 35013KT 9999 BKN055
TEMPO 0318/0320 36020G30KT SHRA BKN050TCU
PROB30
TEMPO 0318/0320 35020G40KT 2000 TSRA BKN050CB
TEMPO 0321/0406 36003KT
TEMPO 0404/0408 BKN020
ATIS : +33 4 77 36 17 51



MET'MAP, your aeronautical weather chart ! - Copyright ORBIFLY December 2007 - Disclaimer

ORBIFLY MET'MAP TEAM :

Programming & Development : Alexandra Zaïnal
Concept & original design : Baudouin d'Aumeries
Assistance for programming : Marc-Olivier Méhu
Technical & hardware support : Manuel Goepfert

Contact : metmap@orbifly.com




SOURCES & CREDITS :

   NOAA